EBCI/CRL METAR and TAF weather

Enter ICAO airport designator
Station Type Date Time Source
EBCI METAR 2019/06/24 23:20 UTC NOAA

EBCI 242320Z 08004KT CAVOK 23/18 Q1017 NOSIG


Station Type Date Time Source
EBCI Decoded METAR 2019/06/24 23:20 UTC NOAA

Charleroi / Gosselies, Belgium (EBCI) 50-28N 004-27E 192M
Jun 24, 2019 - 07:20 PM EDT / 2019.06.24 2320 UTC
Wind: from the E (080 degrees) at 5 MPH (4 KT):0
Visibility: greater than 7 mile(s):0
Temperature: 73 F (23 C)
Dew Point: 64 F (18 C)
Relative Humidity: 73%
Pressure (altimeter): 30.03 in. Hg (1017 hPa)
ob: EBCI 242320Z 08004KT CAVOK 23/18 Q1017 NOSIG
cycle: 23

Station Type Date Time Source
EBCI TAF 2019/06/24 18:27 UTC NOAA

TAF EBCI 241710Z 2418/2524 11006KT CAVOK

Example: see airport list